Terminal Aerodrome Forecast
Issued by NWS Albany, NY

Home | Current Version | Previous Version | Text Only | Print | Product List | Glossary On
Versions: 1 2 3 4 5 6 7 8 9 10 11 12 13 14 15 16 17 18 19 20 21 22 23
219
FTUS41 KALY 012342 AAF
TAFPOU
TAF AMD
KPOU 012342Z 0200/0224 12005KT P6SM VCSH OVC010
      TEMPO 0200/0203 3SM -DZ BR OVC005
     FM020300 10004KT P6SM VCSH OVC010
      TEMPO 0203/0206 2SM -DZ BR OVC003
     FM020600 VRB03KT 3SM BR OVC009
     FM021200 VRB03KT 3SM -SHRA BR OVC010
     FM022200 25005KT P6SM OVC020=

USA.gov is the U.S. government's official web portal to all federal, state and local government web resources and services.